sensor_id;sensor_type;location;lat;lon;timestamp;pressure;altitude;pressure_sealevel;temperature;humidity
57024;BME280;42916;54.346;18.562;2022-11-28T00:02:19;101423.67;;;2.43;100.00
57024;BME280;42916;54.346;18.562;2022-11-28T00:04:50;101423.14;;;2.41;100.00
57024;BME280;42916;54.346;18.562;2022-11-28T00:07:16;101420.23;;;2.39;100.00
57024;BME280;42916;54.346;18.562;2022-11-28T00:09:43;101420.31;;;2.35;100.00
57024;BME280;42916;54.346;18.562;2022-11-28T00:12:09;101413.42;;;2.33;100.00
57024;BME280;42916;54.346;18.562;2022-11-28T00:14:36;101417.12;;;2.32;100.00
57024;BME280;42916;54.346;18.562;2022-11-28T00:17:03;101421.01;;;2.31;100.00
57024;BME280;42916;54.346;18.562;2022-11-28T00:19:29;101420.11;;;2.29;100.00
57024;BME280;42916;54.346;18.562;2022-11-28T00:21:56;101419.42;;;2.25;100.00
57024;BME280;42916;54.346;18.562;2022-11-28T00:24:22;101417.50;;;2.22;100.00
57024;BME280;42916;54.346;18.562;2022-11-28T00:26:49;101419.75;;;2.19;100.00
57024;BME280;42916;54.346;18.562;2022-11-28T00:29:15;101417.27;;;2.19;100.00
57024;BME280;42916;54.346;18.562;2022-11-28T00:31:42;101412.98;;;2.19;100.00
57024;BME280;42916;54.346;18.562;2022-11-28T00:34:11;101408.55;;;2.17;100.00
57024;BME280;42916;54.346;18.562;2022-11-28T00:36:38;101410.78;;;2.15;100.00
57024;BME280;42916;54.346;18.562;2022-11-28T00:39:05;101409.70;;;2.15;100.00
57024;BME280;42916;54.346;18.562;2022-11-28T00:41:32;101410.90;;;2.12;100.00
57024;BME280;42916;54.346;18.562;2022-11-28T00:44:00;101409.73;;;2.10;100.00
57024;BME280;42916;54.346;18.562;2022-11-28T00:46:27;101411.11;;;2.09;100.00
57024;BME280;42916;54.346;18.562;2022-11-28T00:48:54;101412.86;;;2.09;100.00
57024;BME280;42916;54.346;18.562;2022-11-28T00:51:23;101413.05;;;2.09;100.00
57024;BME280;42916;54.346;18.562;2022-11-28T00:53:52;101418.44;;;2.07;100.00
57024;BME280;42916;54.346;18.562;2022-11-28T00:56:21;101414.98;;;2.04;100.00
57024;BME280;42916;54.346;18.562;2022-11-28T00:58:48;101415.98;;;2.01;100.00
57024;BME280;42916;54.346;18.562;2022-11-28T01:01:18;101413.58;;;1.97;100.00
57024;BME280;42916;54.346;18.562;2022-11-28T01:03:46;101411.47;;;1.93;100.00
57024;BME280;42916;54.346;18.562;2022-11-28T01:06:21;101409.98;;;1.92;100.00
57024;BME280;42916;54.346;18.562;2022-11-28T01:08:48;101412.63;;;1.91;100.00
57024;BME280;42916;54.346;18.562;2022-11-28T01:11:15;101407.63;;;1.89;100.00
57024;BME280;42916;54.346;18.562;2022-11-28T01:13:42;101403.02;;;1.87;100.00
57024;BME280;42916;54.346;18.562;2022-11-28T01:16:09;101400.37;;;1.88;100.00
57024;BME280;42916;54.346;18.562;2022-11-28T01:18:36;101396.88;;;1.89;100.00
57024;BME280;42916;54.346;18.562;2022-11-28T01:21:04;101391.83;;;1.91;100.00
57024;BME280;42916;54.346;18.562;2022-11-28T01:23:31;101388.54;;;1.92;100.00
57024;BME280;42916;54.346;18.562;2022-11-28T01:25:57;101388.71;;;1.92;100.00
57024;BME280;42916;54.346;18.562;2022-11-28T01:28:24;101385.08;;;1.93;100.00
57024;BME280;42916;54.346;18.562;2022-11-28T01:30:51;101384.35;;;1.91;100.00
57024;BME280;42916;54.346;18.562;2022-11-28T01:33:17;101380.23;;;1.91;100.00
57024;BME280;42916;54.346;18.562;2022-11-28T01:35:54;101374.34;;;1.92;100.00
57024;BME280;42916;54.346;18.562;2022-11-28T01:38:22;101372.98;;;1.92;100.00
57024;BME280;42916;54.346;18.562;2022-11-28T01:40:48;101375.17;;;1.90;100.00
57024;BME280;42916;54.346;18.562;2022-11-28T01:43:16;101372.67;;;1.91;100.00
57024;BME280;42916;54.346;18.562;2022-11-28T01:45:43;101366.19;;;1.89;100.00
57024;BME280;42916;54.346;18.562;2022-11-28T01:48:13;101373.02;;;1.86;100.00
57024;BME280;42916;54.346;18.562;2022-11-28T01:50:42;101371.80;;;1.85;100.00
57024;BME280;42916;54.346;18.562;2022-11-28T01:53:12;101374.15;;;1.84;100.00
57024;BME280;42916;54.346;18.562;2022-11-28T01:55:46;101373.81;;;1.84;100.00
57024;BME280;42916;54.346;18.562;2022-11-28T01:58:14;101372.29;;;1.86;100.00
57024;BME280;42916;54.346;18.562;2022-11-28T02:00:41;101369.73;;;1.90;100.00
57024;BME280;42916;54.346;18.562;2022-11-28T02:03:15;101365.77;;;1.93;100.00
57024;BME280;42916;54.346;18.562;2022-11-28T02:05:43;101362.67;;;1.93;100.00
57024;BME280;42916;54.346;18.562;2022-11-28T02:08:10;101359.65;;;1.94;100.00
57024;BME280;42916;54.346;18.562;2022-11-28T02:10:53;101365.08;;;1.95;100.00
57024;BME280;42916;54.346;18.562;2022-11-28T02:24:38;101355.16;;;1.93;100.00
57024;BME280;42916;54.346;18.562;2022-11-28T02:35:15;101344.70;;;1.84;100.00
57024;BME280;42916;54.346;18.562;2022-11-28T02:40:34;101342.76;;;1.82;100.00
57024;BME280;42916;54.346;18.562;2022-11-28T02:51:25;101338.95;;;1.70;100.00
57024;BME280;42916;54.346;18.562;2022-11-28T02:53:54;101343.31;;;1.69;100.00
57024;BME280;42916;54.346;18.562;2022-11-28T02:56:23;101336.38;;;1.69;100.00
57024;BME280;42916;54.346;18.562;2022-11-28T02:58:50;101336.89;;;1.69;100.00
57024;BME280;42916;54.346;18.562;2022-11-28T03:01:20;101336.69;;;1.70;100.00
57024;BME280;42916;54.346;18.562;2022-11-28T03:07:00;101334.25;;;1.64;100.00
57024;BME280;42916;54.346;18.562;2022-11-28T03:14:55;101332.70;;;1.59;100.00
57024;BME280;42916;54.346;18.562;2022-11-28T03:23:19;101329.56;;;1.61;100.00
57024;BME280;42916;54.346;18.562;2022-11-28T03:25:59;101326.58;;;1.64;100.00
57024;BME280;42916;54.346;18.562;2022-11-28T03:28:44;101321.08;;;1.63;100.00
57024;BME280;42916;54.346;18.562;2022-11-28T03:31:21;101321.91;;;1.59;100.00
57024;BME280;42916;54.346;18.562;2022-11-28T03:33:52;101319.02;;;1.58;100.00
57024;BME280;42916;54.346;18.562;2022-11-28T03:38:53;101318.87;;;1.55;100.00
57024;BME280;42916;54.346;18.562;2022-11-28T03:41:30;101322.83;;;1.55;100.00
57024;BME280;42916;54.346;18.562;2022-11-28T03:43:59;101321.77;;;1.47;100.00
57024;BME280;42916;54.346;18.562;2022-11-28T03:46:35;101320.19;;;1.43;100.00
57024;BME280;42916;54.346;18.562;2022-11-28T03:49:04;101322.54;;;1.38;100.00
57024;BME280;42916;54.346;18.562;2022-11-28T03:51:38;101326.41;;;1.34;100.00
57024;BME280;42916;54.346;18.562;2022-11-28T03:54:51;101328.73;;;1.30;100.00
57024;BME280;42916;54.346;18.562;2022-11-28T03:57:29;101326.52;;;1.26;100.00
57024;BME280;42916;54.346;18.562;2022-11-28T04:00:00;101325.83;;;1.24;100.00
57024;BME280;42916;54.346;18.562;2022-11-28T04:02:56;101330.56;;;1.24;100.00
57024;BME280;42916;54.346;18.562;2022-11-28T04:05:43;101337.06;;;1.23;100.00
57024;BME280;42916;54.346;18.562;2022-11-28T04:13:12;101340.19;;;1.22;100.00
57024;BME280;42916;54.346;18.562;2022-11-28T04:23:45;101331.33;;;1.15;100.00
57024;BME280;42916;54.346;18.562;2022-11-28T04:26:17;101331.44;;;1.14;100.00
57024;BME280;42916;54.346;18.562;2022-11-28T04:28:47;101330.94;;;1.13;100.00
57024;BME280;42916;54.346;18.562;2022-11-28T04:31:16;101329.57;;;1.11;100.00
57024;BME280;42916;54.346;18.562;2022-11-28T04:33:46;101329.97;;;1.11;100.00
57024;BME280;42916;54.346;18.562;2022-11-28T04:36:17;101328.56;;;1.10;100.00
57024;BME280;42916;54.346;18.562;2022-11-28T04:38:46;101331.27;;;1.10;100.00
57024;BME280;42916;54.346;18.562;2022-11-28T04:41:32;101331.48;;;1.12;100.00
57024;BME280;42916;54.346;18.562;2022-11-28T04:44:24;101330.75;;;1.12;100.00
57024;BME280;42916;54.346;18.562;2022-11-28T04:46:54;101335.56;;;1.14;100.00
57024;BME280;42916;54.346;18.562;2022-11-28T04:49:24;101334.29;;;1.14;100.00
57024;BME280;42916;54.346;18.562;2022-11-28T04:52:05;101329.27;;;1.12;100.00
57024;BME280;42916;54.346;18.562;2022-11-28T04:57:32;101335.10;;;1.13;100.00
57024;BME280;42916;54.346;18.562;2022-11-28T05:00:02;101332.82;;;1.14;100.00
57024;BME280;42916;54.346;18.562;2022-11-28T05:02:30;101328.85;;;1.15;100.00
57024;BME280;42916;54.346;18.562;2022-11-28T05:04:58;101327.59;;;1.15;100.00
57024;BME280;42916;54.346;18.562;2022-11-28T05:07:25;101331.38;;;1.18;100.00
57024;BME280;42916;54.346;18.562;2022-11-28T05:09:52;101327.38;;;1.20;100.00
57024;BME280;42916;54.346;18.562;2022-11-28T05:12:18;101330.22;;;1.21;100.00
57024;BME280;42916;54.346;18.562;2022-11-28T05:14:45;101323.48;;;1.23;100.00
57024;BME280;42916;54.346;18.562;2022-11-28T05:17:12;101325.73;;;1.23;100.00
57024;BME280;42916;54.346;18.562;2022-11-28T05:19:38;101327.98;;;1.24;100.00
57024;BME280;42916;54.346;18.562;2022-11-28T05:22:05;101327.94;;;1.26;100.00
57024;BME280;42916;54.346;18.562;2022-11-28T05:24:31;101326.05;;;1.28;100.00
57024;BME280;42916;54.346;18.562;2022-11-28T05:26:58;101325.34;;;1.34;100.00
57024;BME280;42916;54.346;18.562;2022-11-28T05:29:25;101318.90;;;1.37;100.00
57024;BME280;42916;54.346;18.562;2022-11-28T05:31:51;101327.41;;;1.37;100.00
57024;BME280;42916;54.346;18.562;2022-11-28T05:34:18;101326.20;;;1.37;100.00
57024;BME280;42916;54.346;18.562;2022-11-28T05:36:44;101324.15;;;1.38;100.00
57024;BME280;42916;54.346;18.562;2022-11-28T05:39:11;101323.48;;;1.37;100.00
57024;BME280;42916;54.346;18.562;2022-11-28T05:41:38;101320.19;;;1.39;100.00
57024;BME280;42916;54.346;18.562;2022-11-28T05:44:04;101324.31;;;1.39;100.00
57024;BME280;42916;54.346;18.562;2022-11-28T05:46:31;101321.27;;;1.38;100.00
57024;BME280;42916;54.346;18.562;2022-11-28T05:48:57;101319.60;;;1.37;100.00
57024;BME280;42916;54.346;18.562;2022-11-28T05:51:24;101321.08;;;1.36;100.00
57024;BME280;42916;54.346;18.562;2022-11-28T05:53:50;101326.09;;;1.38;100.00
57024;BME280;42916;54.346;18.562;2022-11-28T05:56:19;101322.20;;;1.39;100.00
57024;BME280;42916;54.346;18.562;2022-11-28T05:58:48;101321.13;;;1.41;100.00
57024;BME280;42916;54.346;18.562;2022-11-28T06:01:17;101317.29;;;1.40;100.00
57024;BME280;42916;54.346;18.562;2022-11-28T06:03:45;101318.06;;;1.40;100.00
57024;BME280;42916;54.346;18.562;2022-11-28T06:06:13;101318.39;;;1.38;100.00
57024;BME280;42916;54.346;18.562;2022-11-28T06:08:40;101313.70;;;1.37;100.00
57024;BME280;42916;54.346;18.562;2022-11-28T06:11:07;101315.26;;;1.34;100.00
57024;BME280;42916;54.346;18.562;2022-11-28T06:13:35;101304.82;;;1.33;100.00
57024;BME280;42916;54.346;18.562;2022-11-28T06:16:01;101299.91;;;1.32;100.00
57024;BME280;42916;54.346;18.562;2022-11-28T06:18:28;101304.20;;;1.32;100.00
57024;BME280;42916;54.346;18.562;2022-11-28T06:20:54;101304.22;;;1.35;100.00
57024;BME280;42916;54.346;18.562;2022-11-28T06:23:21;101301.11;;;1.34;100.00
57024;BME280;42916;54.346;18.562;2022-11-28T06:25:48;101303.65;;;1.34;100.00
57024;BME280;42916;54.346;18.562;2022-11-28T06:28:14;101303.13;;;1.32;100.00
57024;BME280;42916;54.346;18.562;2022-11-28T06:30:42;101302.02;;;1.29;100.00
57024;BME280;42916;54.346;18.562;2022-11-28T06:33:09;101304.54;;;1.31;100.00
57024;BME280;42916;54.346;18.562;2022-11-28T06:35:35;101304.83;;;1.33;100.00
57024;BME280;42916;54.346;18.562;2022-11-28T06:38:02;101303.78;;;1.35;100.00
57024;BME280;42916;54.346;18.562;2022-11-28T06:40:28;101302.31;;;1.36;100.00
57024;BME280;42916;54.346;18.562;2022-11-28T06:42:55;101300.36;;;1.36;100.00
57024;BME280;42916;54.346;18.562;2022-11-28T06:45:22;101296.34;;;1.35;100.00
57024;BME280;42916;54.346;18.562;2022-11-28T06:47:48;101297.15;;;1.33;100.00
57024;BME280;42916;54.346;18.562;2022-11-28T06:50:15;101298.91;;;1.32;100.00
57024;BME280;42916;54.346;18.562;2022-11-28T06:52:41;101296.66;;;1.31;100.00
57024;BME280;42916;54.346;18.562;2022-11-28T06:55:08;101295.80;;;1.29;100.00
57024;BME280;42916;54.346;18.562;2022-11-28T06:57:35;101305.27;;;1.30;100.00
57024;BME280;42916;54.346;18.562;2022-11-28T07:00:02;101304.70;;;1.33;100.00
57024;BME280;42916;54.346;18.562;2022-11-28T07:02:29;101305.87;;;1.31;100.00
57024;BME280;42916;54.346;18.562;2022-11-28T07:04:56;101305.76;;;1.28;100.00
57024;BME280;42916;54.346;18.562;2022-11-28T07:07:22;101303.37;;;1.25;100.00
57024;BME280;42916;54.346;18.562;2022-11-28T07:09:50;101309.35;;;1.23;100.00
57024;BME280;42916;54.346;18.562;2022-11-28T07:12:17;101312.19;;;1.23;100.00
57024;BME280;42916;54.346;18.562;2022-11-28T07:14:44;101309.08;;;1.24;100.00
57024;BME280;42916;54.346;18.562;2022-11-28T07:17:10;101304.91;;;1.26;100.00
57024;BME280;42916;54.346;18.562;2022-11-28T07:19:37;101306.59;;;1.27;100.00
57024;BME280;42916;54.346;18.562;2022-11-28T07:22:04;101306.63;;;1.26;100.00
57024;BME280;42916;54.346;18.562;2022-11-28T07:24:30;101303.77;;;1.26;100.00
57024;BME280;42916;54.346;18.562;2022-11-28T07:26:58;101306.27;;;1.25;100.00
57024;BME280;42916;54.346;18.562;2022-11-28T07:29:24;101305.96;;;1.23;100.00
57024;BME280;42916;54.346;18.562;2022-11-28T07:31:56;101304.48;;;1.22;100.00
57024;BME280;42916;54.346;18.562;2022-11-28T07:34:22;101298.96;;;1.19;100.00
57024;BME280;42916;54.346;18.562;2022-11-28T07:36:49;101301.52;;;1.17;100.00
57024;BME280;42916;54.346;18.562;2022-11-28T07:39:15;101301.36;;;1.16;100.00
57024;BME280;42916;54.346;18.562;2022-11-28T07:41:42;101303.94;;;1.15;100.00
57024;BME280;42916;54.346;18.562;2022-11-28T07:44:09;101305.95;;;1.11;100.00
57024;BME280;42916;54.346;18.562;2022-11-28T07:46:37;101301.98;;;1.07;100.00
57024;BME280;42916;54.346;18.562;2022-11-28T07:49:04;101299.20;;;1.05;100.00
57024;BME280;42916;54.346;18.562;2022-11-28T07:51:32;101301.43;;;1.04;100.00
57024;BME280;42916;54.346;18.562;2022-11-28T07:54:00;101303.01;;;1.06;100.00
57024;BME280;42916;54.346;18.562;2022-11-28T07:56:30;101304.18;;;1.08;100.00
57024;BME280;42916;54.346;18.562;2022-11-28T07:58:58;101307.47;;;1.06;100.00
57024;BME280;42916;54.346;18.562;2022-11-28T08:01:27;101298.98;;;1.04;100.00
57024;BME280;42916;54.346;18.562;2022-11-28T08:03:55;101298.73;;;1.06;100.00
57024;BME280;42916;54.346;18.562;2022-11-28T08:06:27;101296.59;;;1.09;100.00
57024;BME280;42916;54.346;18.562;2022-11-28T08:08:56;101296.85;;;1.10;100.00
57024;BME280;42916;54.346;18.562;2022-11-28T08:11:25;101300.44;;;1.10;100.00
57024;BME280;42916;54.346;18.562;2022-11-28T08:13:53;101298.05;;;1.10;100.00
57024;BME280;42916;54.346;18.562;2022-11-28T08:16:22;101299.26;;;1.11;100.00
57024;BME280;42916;54.346;18.562;2022-11-28T08:18:49;101299.23;;;1.13;100.00
57024;BME280;42916;54.346;18.562;2022-11-28T08:21:22;101302.39;;;1.17;100.00
57024;BME280;42916;54.346;18.562;2022-11-28T08:23:51;101304.70;;;1.17;100.00
57024;BME280;42916;54.346;18.562;2022-11-28T08:26:22;101304.77;;;1.14;100.00
57024;BME280;42916;54.346;18.562;2022-11-28T08:28:49;101305.35;;;1.14;100.00
57024;BME280;42916;54.346;18.562;2022-11-28T08:31:20;101305.14;;;1.14;100.00
57024;BME280;42916;54.346;18.562;2022-11-28T08:33:49;101304.02;;;1.13;100.00
57024;BME280;42916;54.346;18.562;2022-11-28T08:36:17;101303.14;;;1.10;100.00
57024;BME280;42916;54.346;18.562;2022-11-28T08:38:45;101300.52;;;1.06;100.00
57024;BME280;42916;54.346;18.562;2022-11-28T08:41:14;101298.23;;;1.07;100.00
57024;BME280;42916;54.346;18.562;2022-11-28T08:43:41;101297.17;;;1.07;100.00
57024;BME280;42916;54.346;18.562;2022-11-28T08:46:11;101292.30;;;1.07;100.00
57024;BME280;42916;54.346;18.562;2022-11-28T08:48:39;101294.89;;;1.13;100.00
57024;BME280;42916;54.346;18.562;2022-11-28T08:51:06;101288.34;;;1.19;100.00
57024;BME280;42916;54.346;18.562;2022-11-28T08:53:34;101292.16;;;1.22;100.00
57024;BME280;42916;54.346;18.562;2022-11-28T08:56:01;101285.23;;;1.23;100.00
57024;BME280;42916;54.346;18.562;2022-11-28T08:58:29;101287.02;;;1.28;100.00
57024;BME280;42916;54.346;18.562;2022-11-28T09:00:55;101289.11;;;1.27;100.00
57024;BME280;42916;54.346;18.562;2022-11-28T09:03:22;101290.14;;;1.29;100.00
57024;BME280;42916;54.346;18.562;2022-11-28T09:05:49;101289.70;;;1.27;100.00
57024;BME280;42916;54.346;18.562;2022-11-28T09:08:19;101291.84;;;1.26;100.00
57024;BME280;42916;54.346;18.562;2022-11-28T09:10:46;101290.64;;;1.25;100.00
57024;BME280;42916;54.346;18.562;2022-11-28T09:13:14;101290.98;;;1.26;100.00
57024;BME280;42916;54.346;18.562;2022-11-28T09:15:42;101290.20;;;1.30;100.00
57024;BME280;42916;54.346;18.562;2022-11-28T09:18:11;101292.56;;;1.33;100.00
57024;BME280;42916;54.346;18.562;2022-11-28T09:20:38;101292.79;;;1.34;100.00
57024;BME280;42916;54.346;18.562;2022-11-28T09:23:06;101289.75;;;1.30;100.00
57024;BME280;42916;54.346;18.562;2022-11-28T09:25:34;101291.04;;;1.32;100.00
57024;BME280;42916;54.346;18.562;2022-11-28T09:28:01;101288.02;;;1.35;100.00
57024;BME280;42916;54.346;18.562;2022-11-28T09:30:28;101287.30;;;1.35;100.00
57024;BME280;42916;54.346;18.562;2022-11-28T09:32:54;101285.27;;;1.35;100.00
57024;BME280;42916;54.346;18.562;2022-11-28T09:35:21;101284.18;;;1.32;100.00
57024;BME280;42916;54.346;18.562;2022-11-28T09:37:48;101284.80;;;1.30;100.00
57024;BME280;42916;54.346;18.562;2022-11-28T09:40:35;101283.20;;;1.33;100.00
57024;BME280;42916;54.346;18.562;2022-11-28T09:43:09;101282.27;;;1.37;100.00
57024;BME280;42916;54.346;18.562;2022-11-28T09:45:37;101276.67;;;1.37;100.00
57024;BME280;42916;54.346;18.562;2022-11-28T09:48:24;101278.48;;;1.35;100.00
57024;BME280;42916;54.346;18.562;2022-11-28T09:50:57;101273.99;;;1.34;100.00
57024;BME280;42916;54.346;18.562;2022-11-28T09:53:31;101275.98;;;1.32;100.00
57024;BME280;42916;54.346;18.562;2022-11-28T09:56:11;101276.05;;;1.31;100.00
57024;BME280;42916;54.346;18.562;2022-11-28T09:58:49;101269.77;;;1.35;100.00
57024;BME280;42916;54.346;18.562;2022-11-28T10:20:20;101268.80;;;1.32;100.00
57024;BME280;42916;54.346;18.562;2022-11-28T10:22:55;101264.73;;;1.32;100.00
57024;BME280;42916;54.346;18.562;2022-11-28T10:25:28;101264.61;;;1.33;100.00
57024;BME280;42916;54.346;18.562;2022-11-28T10:27:55;101260.02;;;1.34;100.00
57024;BME280;42916;54.346;18.562;2022-11-28T10:30:25;101257.91;;;1.34;100.00
57024;BME280;42916;54.346;18.562;2022-11-28T10:33:00;101250.28;;;1.35;100.00
57024;BME280;42916;54.346;18.562;2022-11-28T10:35:41;101250.44;;;1.34;100.00
57024;BME280;42916;54.346;18.562;2022-11-28T10:38:14;101252.60;;;1.30;100.00
57024;BME280;42916;54.346;18.562;2022-11-28T10:43:56;101251.26;;;1.31;100.00
57024;BME280;42916;54.346;18.562;2022-11-28T10:46:35;101253.54;;;1.31;100.00
57024;BME280;42916;54.346;18.562;2022-11-28T11:00:09;101255.53;;;1.27;100.00
57024;BME280;42916;54.346;18.562;2022-11-28T11:02:50;101251.73;;;1.27;100.00
57024;BME280;42916;54.346;18.562;2022-11-28T11:05:28;101255.81;;;1.29;100.00
57024;BME280;42916;54.346;18.562;2022-11-28T11:07:57;101255.81;;;1.30;100.00
57024;BME280;42916;54.346;18.562;2022-11-28T11:10:32;101255.75;;;1.31;100.00
57024;BME280;42916;54.346;18.562;2022-11-28T11:13:15;101258.55;;;1.33;100.00
57024;BME280;42916;54.346;18.562;2022-11-28T11:15:42;101260.30;;;1.30;100.00
57024;BME280;42916;54.346;18.562;2022-11-28T11:18:29;101252.58;;;1.26;100.00
57024;BME280;42916;54.346;18.562;2022-11-28T11:21:15;101253.98;;;1.24;100.00
57024;BME280;42916;54.346;18.562;2022-11-28T11:23:43;101255.55;;;1.25;100.00
57024;BME280;42916;54.346;18.562;2022-11-28T11:26:24;101255.46;;;1.25;100.00
57024;BME280;42916;54.346;18.562;2022-11-28T11:28:52;101254.89;;;1.27;100.00
57024;BME280;42916;54.346;18.562;2022-11-28T11:31:29;101259.57;;;1.32;100.00
57024;BME280;42916;54.346;18.562;2022-11-28T11:34:06;101254.67;;;1.34;100.00
57024;BME280;42916;54.346;18.562;2022-11-28T11:36:38;101255.20;;;1.37;100.00
57024;BME280;42916;54.346;18.562;2022-11-28T11:49:31;101261.25;;;1.38;100.00
57024;BME280;42916;54.346;18.562;2022-11-28T11:52:26;101261.86;;;1.42;100.00
57024;BME280;42916;54.346;18.562;2022-11-28T11:55:15;101259.85;;;1.45;100.00
57024;BME280;42916;54.346;18.562;2022-11-28T11:57:47;101256.73;;;1.41;100.00
57024;BME280;42916;54.346;18.562;2022-11-28T12:00:18;101258.07;;;1.37;100.00
57024;BME280;42916;54.346;18.562;2022-11-28T12:02:58;101255.31;;;1.38;100.00
57024;BME280;42916;54.346;18.562;2022-11-28T12:05:29;101250.57;;;1.36;100.00
57024;BME280;42916;54.346;18.562;2022-11-28T12:10:27;101252.51;;;1.42;100.00
57024;BME280;42916;54.346;18.562;2022-11-28T12:12:55;101247.14;;;1.47;100.00
57024;BME280;42916;54.346;18.562;2022-11-28T12:15:49;101246.23;;;1.48;100.00
57024;BME280;42916;54.346;18.562;2022-11-28T12:18:33;101245.31;;;1.50;100.00
57024;BME280;42916;54.346;18.562;2022-11-28T12:21:13;101244.29;;;1.47;100.00
57024;BME280;42916;54.346;18.562;2022-11-28T12:24:15;101241.06;;;1.48;100.00
57024;BME280;42916;54.346;18.562;2022-11-28T12:26:52;101243.81;;;1.49;100.00
57024;BME280;42916;54.346;18.562;2022-11-28T12:29:36;101240.91;;;1.52;100.00
57024;BME280;42916;54.346;18.562;2022-11-28T12:52:36;101224.91;;;1.40;100.00
57024;BME280;42916;54.346;18.562;2022-11-28T12:55:29;101219.84;;;1.37;100.00
57024;BME280;42916;54.346;18.562;2022-11-28T12:58:11;101223.23;;;1.34;100.00
57024;BME280;42916;54.346;18.562;2022-11-28T13:01:08;101222.34;;;1.31;100.00
57024;BME280;42916;54.346;18.562;2022-11-28T13:19:00;101210.02;;;1.29;100.00
57024;BME280;42916;54.346;18.562;2022-11-28T13:24:10;101207.02;;;1.24;100.00
57024;BME280;42916;54.346;18.562;2022-11-28T13:29:30;101197.13;;;1.20;100.00
57024;BME280;42916;54.346;18.562;2022-11-28T13:32:22;101200.34;;;1.17;100.00
57024;BME280;42916;54.346;18.562;2022-11-28T13:34:52;101198.98;;;1.12;100.00
57024;BME280;42916;54.346;18.562;2022-11-28T13:37:50;101204.98;;;1.13;100.00
57024;BME280;42916;54.346;18.562;2022-11-28T13:43:02;101194.81;;;1.12;100.00
57024;BME280;42916;54.346;18.562;2022-11-28T13:45:34;101194.89;;;1.08;100.00
57024;BME280;42916;54.346;18.562;2022-11-28T13:51:19;101203.11;;;1.02;100.00
57024;BME280;42916;54.346;18.562;2022-11-28T13:57:09;101209.71;;;0.95;100.00
57024;BME280;42916;54.346;18.562;2022-11-28T13:59:59;101206.83;;;0.94;100.00
57024;BME280;42916;54.346;18.562;2022-11-28T14:04:56;101208.65;;;0.90;100.00
57024;BME280;42916;54.346;18.562;2022-11-28T14:07:30;101210.69;;;0.90;100.00
57024;BME280;42916;54.346;18.562;2022-11-28T14:10:14;101215.38;;;0.89;100.00
57024;BME280;42916;54.346;18.562;2022-11-28T14:15:36;101220.30;;;0.90;100.00
57024;BME280;42916;54.346;18.562;2022-11-28T14:24:02;101214.45;;;0.96;100.00
57024;BME280;42916;54.346;18.562;2022-11-28T14:26:37;101213.76;;;0.93;100.00
57024;BME280;42916;54.346;18.562;2022-11-28T14:29:19;101215.58;;;0.91;100.00
57024;BME280;42916;54.346;18.562;2022-11-28T14:31:47;101217.59;;;0.87;100.00
57024;BME280;42916;54.346;18.562;2022-11-28T14:34:43;101222.05;;;0.87;100.00
57024;BME280;42916;54.346;18.562;2022-11-28T14:39:48;101225.88;;;0.87;100.00
57024;BME280;42916;54.346;18.562;2022-11-28T14:47:26;101232.72;;;0.91;100.00
57024;BME280;42916;54.346;18.562;2022-11-28T14:52:39;101233.91;;;0.85;100.00
57024;BME280;42916;54.346;18.562;2022-11-28T15:00:22;101230.73;;;0.78;100.00
57024;BME280;42916;54.346;18.562;2022-11-28T15:05:46;101227.25;;;0.79;100.00
57024;BME280;42916;54.346;18.562;2022-11-28T15:11:17;101230.44;;;0.78;100.00
57024;BME280;42916;54.346;18.562;2022-11-28T15:16:31;101232.84;;;0.79;100.00
57024;BME280;42916;54.346;18.562;2022-11-28T15:19:24;101224.17;;;0.81;100.00
57024;BME280;42916;54.346;18.562;2022-11-28T15:21:53;101225.86;;;0.82;100.00
57024;BME280;42916;54.346;18.562;2022-11-28T15:24:25;101226.45;;;0.83;100.00
57024;BME280;42916;54.346;18.562;2022-11-28T15:26:55;101226.52;;;0.82;100.00
57024;BME280;42916;54.346;18.562;2022-11-28T15:29:25;101231.77;;;0.83;100.00
57024;BME280;42916;54.346;18.562;2022-11-28T15:31:54;101228.61;;;0.84;100.00
57024;BME280;42916;54.346;18.562;2022-11-28T15:34:31;101228.11;;;0.87;100.00
57024;BME280;42916;54.346;18.562;2022-11-28T15:37:01;101228.19;;;0.91;100.00
57024;BME280;42916;54.346;18.562;2022-11-28T15:39:30;101229.03;;;0.92;100.00
57024;BME280;42916;54.346;18.562;2022-11-28T15:42:01;101227.16;;;0.94;100.00
57024;BME280;42916;54.346;18.562;2022-11-28T15:44:29;101226.71;;;0.97;100.00
57024;BME280;42916;54.346;18.562;2022-11-28T15:46:57;101228.89;;;0.96;100.00
57024;BME280;42916;54.346;18.562;2022-11-28T15:49:30;101232.23;;;0.97;100.00
57024;BME280;42916;54.346;18.562;2022-11-28T15:52:00;101229.53;;;0.99;100.00
57024;BME280;42916;54.346;18.562;2022-11-28T15:54:36;101230.85;;;1.01;100.00
57024;BME280;42916;54.346;18.562;2022-11-28T15:57:04;101230.78;;;1.02;100.00
57024;BME280;42916;54.346;18.562;2022-11-28T15:59:32;101227.25;;;1.04;100.00
57024;BME280;42916;54.346;18.562;2022-11-28T16:02:06;101230.39;;;1.08;100.00
57024;BME280;42916;54.346;18.562;2022-11-28T16:04:38;101228.58;;;1.10;100.00
57024;BME280;42916;54.346;18.562;2022-11-28T16:07:05;101224.02;;;1.11;100.00
57024;BME280;42916;54.346;18.562;2022-11-28T16:09:35;101221.44;;;1.13;100.00
57024;BME280;42916;54.346;18.562;2022-11-28T16:12:04;101222.54;;;1.17;100.00
57024;BME280;42916;54.346;18.562;2022-11-28T16:14:33;101219.88;;;1.18;100.00
57024;BME280;42916;54.346;18.562;2022-11-28T16:17:03;101219.46;;;1.21;100.00